This is the latest recevied weather packets stored in our database for station/object KF0ZH. If no packets are shown the sender has not sent any weather packets the latest 10 day(s).
| Time | Temp. | Humidity | Pressure | Rain* | Wind** | Luminosity | Snow |
|---|---|---|---|---|---|---|---|
| 1777918023 | 15° C | 46% | 997.9 hPa | 0 mm | 7.6 m/s, 327° | - | - |
| 1777917724 | 15.56° C | 47% | 997.8 hPa | 0 mm | 3.13 m/s, 288° | - | - |
| 1777917428 | 15.56° C | 47% | 997.7 hPa | 0 mm | 0.45 m/s, 327° | - | - |
| 1777916830 | 15.56° C | 46% | 997.4 hPa | 0 mm | 3.58 m/s, 303° | - | - |
| 1777916523 | 16.11° C | 46% | 997.5 hPa | 0 mm | 6.26 m/s, 288° | - | - |
| 1777916223 | 16.11° C | 47% | 997.4 hPa | 0 mm | 3.58 m/s, 298° | - | - |
| 1777915924 | 15.56° C | 50% | 997.4 hPa | 0 mm | 2.68 m/s, 264° | - | - |
| 1777915630 | 15.56° C | 50% | 997.5 hPa | 0 mm | 2.24 m/s, 295° | - | - |
| 1777915031 | 16.11° C | 47% | 997.4 hPa | 0 mm | 3.13 m/s, 331° | - | - |
| 1777914725 | 16.11° C | 49% | 997.3 hPa | 0 mm | 4.47 m/s, 289° | - | - |
| 1777913823 | 15.56° C | 50% | 997.4 hPa | 0 mm | 3.13 m/s, 310° | - | - |
| 1777913526 | 16.11° C | 49% | 997.3 hPa | 0 mm | 3.58 m/s, 275° | - | - |
| 1777913224 | 16.11° C | 49% | 997.1 hPa | 0 mm | 2.68 m/s, 327° | - | - |
| 1777912923 | 16.11° C | 49% | 997 hPa | 0 mm | 4.92 m/s, 313° | - | - |
| 1777912623 | 16.11° C | 49% | 997 hPa | 0 mm | 4.92 m/s, 286° | - | - |
| 1777912323 | 16.11° C | 52% | 996.9 hPa | 0 mm | 3.58 m/s, 320° | - | - |
| 1777912029 | 16.67° C | 50% | 996.9 hPa | 0 mm | 4.02 m/s, 324° | - | - |
| 1777911424 | 15.56° C | 53% | 996.9 hPa | 0 mm | 0.89 m/s, 255° | - | - |
| 1777911124 | 15.56° C | 52% | 997 hPa | 0 mm | 0 m/s | - | - |
| 1777910824 | 15.56° C | 52% | 997 hPa | 0 mm | 5.36 m/s, 282° | - | - |
| 1777910524 | 15.56° C | 53% | 997.1 hPa | 0 mm | 0 m/s | - | - |
| 1777910223 | 15.56° C | 52% | 997 hPa | 0.51 mm | 1.79 m/s, 222° | - | - |
| 1777909924 | 15.56° C | 53% | 996.9 hPa | 0.51 mm | 4.02 m/s, 303° | - | - |
| 1777909623 | 15.56° C | 53% | 997 hPa | 0.51 mm | 3.58 m/s, 319° | - | - |
| 1777909323 | 16.11° C | 51% | 996.9 hPa | 0.51 mm | 4.92 m/s, 298° | - | - |
* Rain latest hour (hover to see other rain measurements)
** Current wind speed in m/s (hover to see current wind gust speed)